Tiempo atmosférico en la estación meteorológica de Seira, Huesca (825 m.)



Fecha
DESCASC
Temp. máxima en grados centígrados (hora)
DESCASC
Temp. mínima en grados centígrados (hora)
DESCASC
Temp. media en grados centígrados
DESCASC
Racha de viento máxima en m/sg (hora)
DESCASC
Velocidad máxima media en intervalos de 10 minutos(hora)
DESCASC
Precipitaciones diarias en mm
DESCASC
Precipitaciones de 00:00 a 06:00 en mm
DESCASC
Precipitaciones de 06:00 a 12:00 en mm
DESCASC
Precipitaciones de 12:00 a 18:00 en mm
DESCASC
Precipitaciones de 18:00 a 24:00 en mm
DESCASC
28-05-2020 25.9 (16:00) 14.4 (06:40) 20.1 7.78 (16:40) 4.44 (12:20) 0 0 0 0 0
27-05-2020 25.3 (15:20) 12.1 (06:00) 18.7 8.33 (14:00) 3.89 (18:50) 0 0 0 0 0
26-05-2020 26.1 (16:40) 11.1 (07:10) 18.6 7.5 (18:10) 3.61 (14:10) 0.2 0.2 0 0 0
25-05-2020 24.4 (17:40) 14.3 (23:59) 19.3 8.89 (16:00) 5.28 (15:50) 19.4 0 0 0 19.4
24-05-2020 24.6 (15:50) 15.6 (00:00) 20.1 8.89 (12:40) 5 (12:40) 0 0 0 0 0
23-05-2020 28.3 (15:30) 13.1 (00:00) 20.7 8.33 (12:40) 4.44 (12:30) 0 0 0 0 0
22-05-2020 29.7 (16:40) 11.7 (00:00) 20.7 8.06 (14:40) 4.44 (17:20) 0 0 0 0 0
21-05-2020 28.5 (15:50) 9.8 (00:00) 19.2 8.61 (17:50) 4.72 (18:20) 0 0 0 0 0
20-05-2020 28 (16:30) 7.5 (00:00) 17.8 7.22 (14:40) 4.44 (13:30) 0 0 0 0 0
19-05-2020 26 (13:40) 7.1 (00:00) 16.5 8.33 (15:00) 3.33 (17:00) 0 0 0 0 0
18-05-2020 24.9 (16:10) 5.3 (00:00) 15.1 7.5 (15:10) 5 (15:00) 0 0 0 0 0
17-05-2020 24.1 (16:20) 9 (00:00) 16.6 7.78 (20:00) 3.33 (20:00) 0 0 0 0 0
16-05-2020 18.9 (16:00) 9 (00:00) 13.9 8.06 (18:00) 4.44 (15:50) 0 0 0 0 0
15-05-2020 16.2 (13:20) 8.9 (00:00) 12.6 5.28 (13:50) 2.78 (13:50) 6.2 0 0 3.4 2.8
14-05-2020 17.5 (14:00) 8.5 (00:00) 13 5 (14:40) 2.78 (14:20) 5.8 0 0 3.4 2.4
13-05-2020 17.9 (13:40) 8.3 (00:00) 13.1 7.22 (13:10) 4.17 (13:10) 17.8 15.8 1.6 0.4 0
12-05-2020 20 (13:40) 5.2 (00:00) 12.6 7.5 (19:40) 4.17 (15:00) 5.2 0 0 0 5.2
11-05-2020 18.5 (17:40) 8.3 (00:00) 13.4 7.5 (16:00) 4.17 (15:50) 0.2 0.2 0 0 0
10-05-2020 13.5 (00:00) 9.9 (00:00) 11.7 10.56 (10:40) 3.61 (10:40) 27.8 0.2 12.8 11.2 3.6
09-05-2020 24 (14:30) 9.3 (00:00) 16.7 10 (14:00) 4.72 (17:10) 0.2 0 0.2 0 0
08-05-2020 25 (16:00) 11.3 (00:00) 18.2 8.61 (12:20) 4.44 (16:20) 0 0 0 0 0
07-05-2020 25.8 (14:30) 10 (00:00) 17.9 7.78 (16:20) 4.17 (13:40) 0 0 0 0 0
06-05-2020 25.5 (16:20) 7.1 (00:00) 16.3 7.5 (15:40) 4.44 (15:30) 0 0 0 0 0
05-05-2020 25.4 (15:20) 10.2 (00:00) 17.8 8.06 (16:00) 3.61 (16:00) 0 0 0 0 0
04-05-2020 29 (15:30) 9.7 (00:00) 19.3 8.89 (13:30) 3.89 (13:40) 0 0 0 0 0
03-05-2020 26 (16:00) 7.2 (00:00) 16.6 8.06 (14:00) 4.17 (13:00) 0 0 0 0 0
02-05-2020 23.9 (16:10) 7.4 (00:00) 15.6 8.61 (16:40) 4.44 (12:10) 0 0 0 0 0

Gráficas

Temp. máximas Temp. mínimas Temp. medias Precipitaciones Rachas de viento máximas Velocidades máximas media en intervalos de 10 minutos

Datos horarios

Fecha y hora oficial Temperatura (ºC) Velocidad del viento (km/h) Dirección del viento Racha (km/h) Dirección de racha Precipitación (mm) Presión (hPa) Tendencia (hPa) Humedad (%)
2020-05-31 23:00:00 13.4 0 Calma 4 Sudeste 3.4 -- -- 96
2020-05-31 22:00:00 14 0 Calma 3 Noroeste 5.4 -- -- 94
2020-05-31 21:00:00 15.1 3 Este 27 Sudoeste 1.2 -- -- 86
2020-05-31 20:00:00 17.7 3 Sur 15 Sur 0.6 -- -- 77
2020-05-31 19:00:00 20.3 0 Calma 7 Sur 0 -- -- 75
2020-05-31 18:00:00 20.8 0 Calma 10 Sur 0 -- -- 71
2020-05-31 17:00:00 22.8 3 Sur 24 Sudoeste 0 -- -- 62
2020-05-31 16:00:00 26.3 11 Sudoeste 26 Sudoeste 0 -- -- 51
2020-05-31 15:00:00 25.2 8 Sudoeste 21 Sudoeste 0 -- -- 52
2020-05-31 14:00:00 25 11 Sudoeste 23 Sudoeste 0 -- -- 51
2020-05-31 13:00:00 23.7 13 Sudoeste 26 Sudoeste 0 -- -- 54
2020-05-31 12:00:00 22.5 16 Sudoeste 23 Sudoeste 0 -- -- 58
2020-05-31 11:00:00 20.1 6 Sur 13 Sur 0 -- -- 68
2020-05-31 10:00:00 16.7 0 Calma 0 Calma 0 -- -- 82
2020-05-31 09:00:00 14.2 0 Calma 0 Calma 0 -- -- 91
2020-05-31 08:00:00 13 0 Calma 0 Calma 0 -- -- 97
2020-05-31 07:00:00 12.7 0 Calma 0 Calma 0 -- -- 95
2020-05-31 06:00:00 13.5 0 Calma 0 Calma 0 -- -- 94
2020-05-31 05:00:00 14 0 Calma 0 Calma 0 -- -- 93
2020-05-31 04:00:00 14.1 0 Calma 0 Calma 0 -- -- 93
2020-05-31 03:00:00 14.1 0 Calma 0 Calma 0 -- -- 92
2020-05-31 02:00:00 14.5 0 Calma 0 Calma 0 -- -- 91
2020-05-31 01:00:00 15.5 0 Calma 0 Calma 0 -- -- 87
2020-05-31 00:00:00 16.9 0 Calma 9 Sur 0 -- -- 83
2020-05-30 23:00:00 19.3 4 Sudoeste 19 Sudoeste 0 -- -- 72
2020-05-30 22:00:00 19.6 6 Sur 18 Sudoeste 0 -- -- 66
2020-05-30 21:00:00 21.2 4 Sur 17 Sur 0 -- -- 59
2020-05-30 20:00:00 22 5 Sudoeste 15 Sur 0 -- -- 56
2020-05-30 19:00:00 23.7 5 Sudoeste 19 Sudoeste 0 -- -- 51
2020-05-30 18:00:00 25.7 7 Sudoeste 25 Sudoeste 0 -- -- 46
2020-05-30 17:00:00 25 12 Sudoeste 26 Sudoeste 0 -- -- 45
2020-05-30 16:00:00 25.4 7 Sudoeste 23 Sudoeste 0 -- -- 47
2020-05-30 15:00:00 24.7 9 Sudoeste 25 Sur 0 -- -- 50
2020-05-30 14:00:00 23.8 12 Sudoeste 26 Sur 0 -- -- 52
2020-05-30 13:00:00 23 13 Sudoeste 28 Sudoeste 0 -- -- 53
2020-05-30 12:00:00 21.3 14 Sudoeste 24 Sur 0 -- -- 55
2020-05-30 11:00:00 19.3 3 Sudeste 13 Sudeste 0 -- -- 67
2020-05-30 10:00:00 14.8 0 Calma 6 Nordeste 0 -- -- 84
2020-05-30 09:00:00 12.6 0 Calma 5 Norte 0 -- -- 95
2020-05-30 08:00:00 11 0 Calma 0 Calma 0 -- -- 98
2020-05-30 07:00:00 10.8 0 Calma 0 Calma 0 -- -- 97
2020-05-30 06:00:00 11.4 0 Calma 0 Calma 0 -- -- 96
2020-05-30 05:00:00 11.7 0 Calma 0 Calma 0 -- -- 98
2020-05-30 04:00:00 11.2 0 Calma 0 Calma 0 -- -- 98
2020-05-30 03:00:00 11.4 0 Calma 0 Calma 0 -- -- 97
2020-05-30 02:00:00 11.8 0 Calma 0 Calma 0 -- -- 97
2020-05-30 01:00:00 12.6 0 Calma 0 Calma 0 -- -- 96
2020-05-30 00:00:00 13.8 0 Calma 0 Calma 0 -- -- 95
2020-05-29 23:00:00 14.1 0 Calma 4 Sudeste 0 -- -- 95
2020-05-29 22:00:00 14.2 2 Sudeste 5 Norte 0 -- -- 95
2020-05-29 21:00:00 15.2 2 Este 4 Sudoeste 0 -- -- 91
2020-05-29 20:00:00 16.2 0 Calma 5 Sudoeste 0 -- -- 90
2020-05-29 19:00:00 17.3 2 Nordeste 17 Sur 0.2 -- -- 87
2020-05-29 18:00:00 19.4 3 Nordeste 8 Sur 1.6 -- -- 90
2020-05-29 17:00:00 24.3 3 Sudeste 16 Noroeste 0 -- -- 61
2020-05-29 16:00:00 24.9 6 Sur 26 Sudoeste 0 -- -- 49
2020-05-29 15:00:00 26.8 14 Sudoeste 27 Sudoeste 0 -- -- 41
2020-05-29 14:00:00 26 10 Sudoeste 26 Sudoeste 0 -- -- 44
2020-05-29 13:00:00 24.9 9 Sudoeste 25 Sudoeste 0 -- -- 51
2020-05-29 12:00:00 23.2 5 Sudoeste 12 Sudoeste 0 -- -- 55
2020-05-29 11:00:00 20 3 Norte 9 Norte 0 -- -- 70
2020-05-29 10:00:00 14.9 4 Norte 10 Norte 0 -- -- 83
2020-05-29 09:00:00 12.7 4 Norte 10 Norte 0 -- -- 92
2020-05-29 08:00:00 11.3 3 Norte 7 Norte 0 -- -- 96
2020-05-29 07:00:00 10.9 0 Calma 0 Calma 0 -- -- 95
2020-05-29 06:00:00 11.2 0 Calma 0 Calma 0 -- -- 95
2020-05-29 05:00:00 11.7 0 Calma 0 Calma 0 -- -- 94
2020-05-29 04:00:00 11.9 0 Calma 2 Sur 0 -- -- 95
2020-05-29 03:00:00 12.3 0 Calma 3 Sudeste 0 -- -- 94
2020-05-29 02:00:00 12.8 0 Calma 3 Sudeste 0 -- -- 91
2020-05-29 01:00:00 13.9 0 Calma 3 Nordeste 0 -- -- 89
2020-05-29 00:00:00 15.2 0 Calma 5 Norte 0 -- -- 86
2020-05-28 23:00:00 16.4 2 Este 4 Nordeste 0 -- -- 81
2020-05-28 22:00:00 18.8 2 Sudeste 11 Norte 0 -- -- 75
2020-05-28 21:00:00 20.7 0 Calma 14 Oeste 0 -- -- 68
2020-05-28 20:00:00 23.6 4 Oeste 13 Noroeste 0 -- -- 58
2020-05-28 19:00:00 21.1 3 Noroeste 15 Oeste 0 -- -- 68
2020-05-28 18:00:00 22.3 6 Noroeste 26 Sudoeste 0 -- -- 62
2020-05-28 17:00:00 24.9 15 Sudoeste 28 Sudoeste 0 -- -- 50
2020-05-28 16:00:00 25.9 9 Sudoeste 27 Sudoeste 0 -- -- 49
2020-05-28 15:00:00 25.2 13 Sudoeste 26 Sudoeste 0 -- -- 47
2020-05-28 14:00:00 24.8 10 Sudoeste 24 Sudoeste 0 -- -- 48
2020-05-28 13:00:00 23.6 12 Sudoeste 27 Sudoeste 0 -- -- 52
2020-05-28 12:00:00 22.5 9 Sudoeste 17 Sudoeste 0 -- -- 57
2020-05-28 11:00:00 20.2 2 Noroeste 6 Noroeste 0 -- -- 68
2020-05-28 10:00:00 16.7 2 Sudoeste 6 Sur 0 -- -- 79
2020-05-28 09:00:00 15.9 0 Calma 0 Calma 0 -- -- 84
2020-05-28 08:00:00 14.8 0 Calma 0 Calma 0 -- -- 88
2020-05-28 07:00:00 14.5 0 Calma 0 Calma 0 -- -- 90
2020-05-28 06:00:00 14.6 0 Calma 3 Nordeste 0 -- -- 92
2020-05-28 05:00:00 14.7 0 Calma 5 Sudoeste 0 -- -- 95
2020-05-28 04:00:00 15 0 Calma 3 Este 0 -- -- 93
2020-05-28 03:00:00 15.3 0 Calma 3 Nordeste 0 -- -- 91
2020-05-28 02:00:00 16.2 0 Calma 4 Oeste 0 -- -- 90
2020-05-28 01:00:00 16.7 0 Calma 4 Noroeste 0 -- -- 87
2020-05-28 00:00:00 17 0 Calma 15 Sudoeste 0 -- -- 85
2020-05-27 23:00:00 17.5 7 Sur 15 Sur 0 -- -- 81
2020-05-27 22:00:00 19.1 3 Sur 22 Norte 0 -- -- 74
2020-05-27 21:00:00 20.4 3 Sur 10 Sur 0 -- -- 60
2020-05-27 20:00:00 22 3 Sur 17 Sudoeste 0 -- -- 59
2020-05-27 19:00:00 23.2 13 Sudoeste 22 Sudoeste 0 -- -- 55
2020-05-27 18:00:00 23.2 9 Sudoeste 14 Sudoeste 0 -- -- 55
2020-05-27 17:00:00 23.3 6 Sudoeste 19 Sudoeste 0 -- -- 56
2020-05-27 16:00:00 23 8 Sudoeste 23 Sudoeste 0 -- -- 56
2020-05-27 15:00:00 24.2 8 Sudoeste 19 Sudoeste 0 -- -- 55
2020-05-27 14:00:00 23.6 10 Sudoeste 30 Sudoeste 0 -- -- 55
2020-05-27 13:00:00 24 10 Sudoeste 26 Sudoeste 0 -- -- 54
2020-05-27 12:00:00 23.2 10 Sudoeste 23 Sudoeste 0 -- -- 58
2020-05-27 11:00:00 20.7 3 Norte 6 Norte 0 -- -- 61
2020-05-27 10:00:00 16.3 4 Norte 9 Norte 0 -- -- 74
2020-05-27 09:00:00 14.5 0 Calma 7 Norte 0 -- -- 76
2020-05-27 08:00:00 13.1 2 Norte 7 Nordeste 0 -- -- 80
2020-05-27 07:00:00 12.5 0 Calma 8 Nordeste 0 -- -- 84
2020-05-27 06:00:00 12.1 0 Calma 3 Sudeste 0 -- -- 89
2020-05-27 05:00:00 12.6 0 Calma 5 Nordeste 0 -- -- 86
2020-05-27 04:00:00 13 0 Calma 4 Nordeste 0 -- -- 86
2020-05-27 03:00:00 13.9 0 Calma 5 Sudoeste 0 -- -- 89
2020-05-27 02:00:00 14.1 0 Calma 3 Norte 0 -- -- 87
2020-05-27 01:00:00 13.8 0 Calma 4 Sudeste 0 -- -- 88
2020-05-27 00:00:00 14.9 0 Calma 4 Este 0 -- -- 89
2020-05-26 23:00:00 16.1 0 Calma 4 Nordeste 0 -- -- 86
2020-05-26 22:00:00 17.4 2 Sudeste 4 Sudeste 0 -- -- 85
2020-05-26 21:00:00 21.2 3 Norte 15 Sur 0 -- -- 69
2020-05-26 20:00:00 23.2 8 Sur 17 Sudoeste 0 -- -- 61
2020-05-26 19:00:00 24.9 8 Sur 27 Sudoeste 0 -- -- 56
2020-05-26 18:00:00 26 7 Sudoeste 22 Sudoeste 0 -- -- 53
2020-05-26 17:00:00 25.9 10 Sur 22 Sudoeste 0 -- -- 55
2020-05-26 16:00:00 25.9 10 Sudoeste 24 Sudoeste 0 -- -- 54
2020-05-26 15:00:00 25.8 12 Sudoeste 25 Sudoeste 0 -- -- 55
2020-05-26 14:00:00 25 8 Sudoeste 22 Sudoeste 0 -- -- 57
2020-05-26 13:00:00 23.9 8 Sudoeste 21 Sudoeste 0 -- -- 60
2020-05-26 12:00:00 21.4 4 Sur 10 Sudoeste 0 -- -- 72
2020-05-26 11:00:00 17.9 3 Norte 8 Norte 0 -- -- 86
2020-05-26 10:00:00 14 3 Norte 9 Norte 0 -- -- 94
2020-05-26 09:00:00 12.5 0 Calma 7 Norte 0 -- -- 98
2020-05-26 08:00:00 11.5 0 Calma 0 Calma 0 -- -- 99
2020-05-26 07:00:00 11.2 0 Calma 0 Calma 0 -- -- 99
2020-05-26 06:00:00 11.6 0 Calma 4 Sudeste 0.2 -- -- 98
2020-05-26 05:00:00 11.9 2 Este 4 Este 0 -- -- 98
2020-05-26 04:00:00 12.6 0 Calma 4 Norte 0 -- -- 98
2020-05-26 03:00:00 13 0 Calma 4 Nordeste 0 -- -- 99
2020-05-26 02:00:00 13.3 0 Calma 4 Sudeste 0 -- -- 98
2020-05-26 01:00:00 13.7 0 Calma 3 Sudeste 0 -- -- 97
2020-05-26 00:00:00 14.3 0 Calma 3 Sur 0 -- -- 97
2020-05-25 23:00:00 15 0 Calma 3 Sur 0 -- -- 97
2020-05-25 22:00:00 15.6 0 Calma 2 Sudeste 0.8 -- -- 97
2020-05-25 21:00:00 15.9 0 Calma 4 Sudeste 3.8 -- -- 95
2020-05-25 20:00:00 16.5 0 Calma 5 Sudeste 5.8 -- -- 93
2020-05-25 19:00:00 19.5 3 Nordeste 24 Sudoeste 9 -- -- 83
2020-05-25 18:00:00 24.1 17 Sudoeste 26 Sudoeste 0 -- -- 56
2020-05-25 17:00:00 23.7 17 Sudoeste 31 Sudoeste 0 -- -- 60
2020-05-25 16:00:00 23.2 19 Sudoeste 32 Sudoeste 0 -- -- 63
2020-05-25 15:00:00 20.4 12 Sudoeste 26 Sudoeste 0 -- -- 73
2020-05-25 14:00:00 19.7 14 Sudoeste 28 Sudoeste 0 -- -- 77
2020-05-25 13:00:00 20.9 9 Sudoeste 21 Sur 0 -- -- 71
2020-05-25 12:00:00 19.9 6 Sudoeste 25 Sudoeste 0 -- -- 76
2020-05-25 11:00:00 19.5 16 Sudoeste 28 Sudoeste 0 -- -- 74
2020-05-25 10:00:00 18.5 3 Sudoeste 8 Norte 0 -- -- 77
2020-05-25 09:00:00 16.8 0 Calma 0 Calma 0 -- -- 85
2020-05-25 08:00:00 15.3 0 Calma 0 Calma 0 -- -- 93
2020-05-25 07:00:00 14.5 0 Calma 0 Calma 0 -- -- 93
2020-05-25 06:00:00 15 0 Calma 0 Calma 0 -- -- 90
2020-05-25 05:00:00 15.7 0 Calma 0 Calma 0 -- -- 89
2020-05-25 04:00:00 15.9 0 Calma 0 Calma 0 -- -- 87
2020-05-25 03:00:00 16 0 Calma 0 Calma 0 -- -- 86
2020-05-25 02:00:00 16.8 0 Calma 3 Sur 0 -- -- 84
2020-05-25 01:00:00 17.3 0 Calma 5 Sur 0 -- -- 81
2020-05-25 00:00:00 18 0 Calma 4 Sur 0 -- -- 77
2020-05-24 23:00:00 18.5 2 Sudeste 8 Sur 0 -- -- 74
2020-05-24 22:00:00 19.2 3 Sudoeste 10 Sudoeste 0 -- -- 73
2020-05-24 21:00:00 20.6 5 Sudoeste 19 Sudoeste 0 -- -- 68
2020-05-24 20:00:00 21.6 10 Sudoeste 23 Sudoeste 0 -- -- 64
2020-05-24 19:00:00 22.7 10 Sudoeste 22 Sudoeste 0 -- -- 62
2020-05-24 18:00:00 23 10 Sudoeste 26 Sudoeste 0 -- -- 59
2020-05-24 17:00:00 24.5 12 Sudoeste 29 Sudoeste 0 -- -- 56
2020-05-24 16:00:00 24.6 13 Sudoeste 30 Sudoeste 0 -- -- 56
2020-05-24 15:00:00 23.8 15 Sudoeste 32 Sudoeste 0 -- -- 59
2020-05-24 14:00:00 22.6 15 Sudoeste 31 Sudoeste 0 -- -- 61
2020-05-24 13:00:00 21.6 13 Sudoeste 32 Sudoeste 0 -- -- 63
2020-05-24 12:00:00 19.9 15 Sudoeste 26 Sudoeste 0 -- -- 67
2020-05-24 11:00:00 18.6 10 Sudoeste 20 Sudoeste 0 -- -- 71
2020-05-24 10:00:00 17.7 4 Sudoeste 9 Sudoeste 0 -- -- 76
2020-05-24 09:00:00 16.7 3 Sudoeste 8 Sur 0 -- -- 79
2020-05-24 08:00:00 15.9 4 Sur 13 Sudoeste 0 -- -- 81
2020-05-24 07:00:00 15.7 3 Sur 8 Sudoeste 0 -- -- 83
2020-05-24 06:00:00 16.1 3 Sudeste 12 Sudeste 0 -- -- 82
2020-05-24 05:00:00 16.7 3 Sudeste 15 Sudoeste 0 -- -- 82
2020-05-24 04:00:00 17 3 Nordeste 13 Sudeste 0 -- -- 83
2020-05-24 03:00:00 16.5 3 Sudeste 10 Sur 0 -- -- 86
2020-05-24 02:00:00 16.1 0 Calma 5 Sudeste 0 -- -- 87
2020-05-24 01:00:00 16.7 0 Calma 3 Sudeste 0 -- -- 84
2020-05-24 00:00:00 17.9 0 Calma 4 Nordeste 0 -- -- 80
2020-05-23 23:00:00 19.6 2 Sudeste 6 Sudeste 0 -- -- 75
2020-05-23 22:00:00 22.2 3 Sur 16 Sudoeste 0 -- -- 65
2020-05-23 21:00:00 23.6 6 Sur 25 Sur 0 -- -- 59
2020-05-23 20:00:00 24.5 8 Sur 27 Sudoeste 0 -- -- 54
2020-05-23 19:00:00 26.8 8 Sudoeste 30 Sur 0 -- -- 44
2020-05-23 18:00:00 28.1 12 Sudoeste 28 Sudoeste 0 -- -- 41
2020-05-23 17:00:00 27.9 9 Sudoeste 27 Sudoeste 0 -- -- 44
2020-05-23 16:00:00 28.2 9 Sudoeste 24 Sur 0 -- -- 43
2020-05-23 15:00:00 28 9 Sudoeste 26 Oeste 0 -- -- 44
2020-05-23 14:00:00 26.5 7 Sur 28 Sudoeste 0 -- -- 47
2020-05-23 13:00:00 26.5 14 Sudoeste 30 Sudoeste 0 -- -- 44
2020-05-23 12:00:00 24.6 9 Sudoeste 18 Sudoeste 0 -- -- 47
2020-05-23 11:00:00 21.4 0 Calma 5 Norte 0 -- -- 59
2020-05-23 10:00:00 18.5 0 Calma 6 Norte 0 -- -- 72
2020-05-23 09:00:00 15.8 3 Norte 8 Norte 0 -- -- 80
2020-05-23 08:00:00 14.4 2 Norte 7 Nordeste 0 -- -- 84
2020-05-23 07:00:00 13.3 0 Calma 6 Oeste 0 -- -- 86
2020-05-23 06:00:00 13.2 0 Calma 6 Este 0 -- -- 87
2020-05-23 05:00:00 13.5 2 Norte 6 Noroeste 0 -- -- 85
2020-05-23 04:00:00 14.1 0 Calma 5 Nordeste 0 -- -- 82
2020-05-23 03:00:00 14.3 0 Calma 4 Sudoeste 0 -- -- 81
2020-05-23 02:00:00 14.3 0 Calma 3 Sur 0 -- -- 83
2020-05-23 01:00:00 15 0 Calma 3 Nordeste 0 -- -- 80
2020-05-23 00:00:00 15.9 0 Calma 4 Sudeste 0 -- -- 77
2020-05-22 23:00:00 17.4 0 Calma 3 Sur 0 -- -- 71
2020-05-22 22:00:00 19.1 0 Calma 3 Este 0 -- -- 66
2020-05-22 21:00:00 22.8 0 Calma 8 Sudeste 0 -- -- 54
2020-05-22 20:00:00 27.8 4 Sudoeste 22 Sudoeste 0 -- -- 41
2020-05-22 19:00:00 28.2 10 Sudoeste 26 Sudoeste 0 -- -- 37
2020-05-22 18:00:00 29 13 Sudoeste 29 Sudoeste 0 -- -- 36
2020-05-22 17:00:00 29.6 10 Sudoeste 27 Sudoeste 0 -- -- 38
2020-05-22 16:00:00 29.4 13 Sudoeste 28 Sudoeste 0 -- -- 33
2020-05-22 15:00:00 29.2 13 Sudoeste 29 Sudoeste 0 -- -- 33
2020-05-22 14:00:00 28.7 12 Sudoeste 26 Sudoeste 0 -- -- 40
2020-05-22 13:00:00 27.4 14 Sudoeste 23 Sudoeste 0 -- -- 40
2020-05-22 12:00:00 24.9 2 Nordeste 10 Norte 0 -- -- 50
2020-05-22 11:00:00 21.3 2 Nordeste 6 Norte 0 -- -- 61
2020-05-22 10:00:00 16.5 2 Norte 7 Norte 0 -- -- 76
2020-05-22 09:00:00 13.8 2 Noroeste 8 Norte 0 -- -- 86
2020-05-22 08:00:00 12 0 Calma 4 Sudoeste 0 -- -- 93
2020-05-22 07:00:00 11.8 0 Calma 5 Noroeste 0 -- -- 92
2020-05-22 06:00:00 12 0 Calma 5 Nordeste 0 -- -- 91
2020-05-22 05:00:00 12.4 0 Calma 5 Nordeste 0 -- -- 90
2020-05-22 04:00:00 13 0 Calma 2 Sudeste 0 -- -- 89
2020-05-22 03:00:00 13.6 0 Calma 3 Norte 0 -- -- 88
2020-05-22 02:00:00 14.2 0 Calma 2 Norte 0 -- -- 86
2020-05-22 01:00:00 14.6 0 Calma 3 Nordeste 0 -- -- 85
2020-05-22 00:00:00 15.2 0 Calma 3 Nordeste 0 -- -- 82
2020-05-21 23:00:00 16.2 0 Calma 4 Este 0 -- -- 79
2020-05-21 22:00:00 18 0 Calma 3 Sur 0 -- -- 74
2020-05-21 21:00:00 20.6 0 Calma 7 Oeste 0 -- -- 65
2020-05-21 20:00:00 25.9 4 Sudoeste 24 Sudoeste 0 -- -- 48
2020-05-21 19:00:00 26.5 8 Sudoeste 27 Sudoeste 0 -- -- 46
2020-05-21 18:00:00 26.9 16 Sudoeste 31 Sudoeste 0 -- -- 44
2020-05-21 17:00:00 27.7 10 Sudoeste 29 Sudoeste 0 -- -- 43
2020-05-21 16:00:00 28.5 9 Sudoeste 28 Sudoeste 0 -- -- 41
2020-05-21 15:00:00 27.7 16 Sudoeste 26 Sudoeste 0 -- -- 39
2020-05-21 14:00:00 27.2 9 Sudoeste 23 Sudoeste 0 -- -- 38
2020-05-21 13:00:00 25.7 14 Sudoeste 23 Sudoeste 0 -- -- 43
2020-05-21 12:00:00 22.3 4 Norte 9 Norte 0 -- -- 53
2020-05-21 11:00:00 19.1 4 Norte 6 Norte 0 -- -- 60
2020-05-21 10:00:00 14.8 2 Nordeste 8 Noroeste 0 -- -- 75
2020-05-21 09:00:00 11.9 2 Sudoeste 8 Norte 0 -- -- 81
2020-05-21 08:00:00 10.3 0 Calma 9 Noroeste 0 -- -- 86
2020-05-21 07:00:00 9.9 0 Calma 0 Calma 0 -- -- 86
2020-05-21 06:00:00 10.1 0 Calma 0 Calma 0 -- -- 85
2020-05-21 05:00:00 10.7 0 Calma 0 Calma 0 -- -- 84
2020-05-21 04:00:00 11.5 0 Calma 0 Calma 0 -- -- 82
2020-05-21 03:00:00 12 0 Calma 0 Calma 0 -- -- 80
2020-05-21 02:00:00 12.7 0 Calma 0 Calma 0 -- -- 80
2020-05-21 01:00:00 13.2 0 Calma 4 Sudeste 0 -- -- 80
2020-05-21 00:00:00 13.7 0 Calma 3 Sur 0 -- -- 78
2020-05-20 23:00:00 15.3 0 Calma 2 Sudeste 0 -- -- 73
2020-05-20 22:00:00 17 0 Calma 5 Sudeste 0 -- -- 70
2020-05-20 21:00:00 20.3 2 Sur 7 Sur 0 -- -- 61
2020-05-20 20:00:00 25.5 6 Sudoeste 23 Sudoeste 0 -- -- 45
2020-05-20 19:00:00 26.7 6 Sur 18 Sudoeste 0 -- -- 42
2020-05-20 18:00:00 27.8 7 Sur 23 Sudoeste 0 -- -- 36
2020-05-20 17:00:00 27.9 12 Sudoeste 24 Sudoeste 0 -- -- 33
2020-05-20 16:00:00 27.9 9 Sur 26 Sudoeste 0 -- -- 31
2020-05-20 15:00:00 27.4 13 Sudoeste 26 Sudoeste 0 -- -- 32
2020-05-20 14:00:00 26.8 13 Sudoeste 25 Sudoeste 0 -- -- 32
2020-05-20 13:00:00 25.6 11 Sudoeste 19 Sudoeste 0 -- -- 27
2020-05-20 12:00:00 22.6 4 Sur 9 Sudeste 0 -- -- 35
2020-05-20 11:00:00 18 3 Sur 11 Noroeste 0 -- -- 46
2020-05-20 10:00:00 12.5 3 Nordeste 10 Norte 0 -- -- 63
2020-05-20 09:00:00 10 2 Norte 10 Norte 0 -- -- 68
2020-05-20 08:00:00 8.2 2 Sur 13 Norte 0 -- -- 72
2020-05-20 07:00:00 7.6 2 Sur 7 Noroeste 0 -- -- 77
2020-05-20 06:00:00 8.7 0 Calma 5 Sudoeste 0 -- -- 73
2020-05-20 05:00:00 9.5 0 Calma 5 Nordeste 0 -- -- 71
2020-05-20 04:00:00 10.2 0 Calma 4 Sudeste 0 -- -- 70
2020-05-20 03:00:00 11.2 0 Calma 5 Sudeste 0 -- -- 69
2020-05-20 02:00:00 12.4 0 Calma 5 Noroeste 0 -- -- 64
2020-05-20 01:00:00 12.7 0 Calma 4 Este 0 -- -- 62
2020-05-20 00:00:00 13.2 0 Calma 5 Norte 0 -- -- 62
2020-05-19 23:00:00 15.8 0 Calma 18 Noroeste 0 -- -- 55
2020-05-19 22:00:00 18 2 Sudeste 16 Norte 0 -- -- 48
2020-05-19 21:00:00 19.6 3 Este 26 Norte 0 -- -- 42
2020-05-19 20:00:00 23.4 4 Nordeste 22 Norte 0 -- -- 35
2020-05-19 19:00:00 24.1 3 Nordeste 15 Nordeste 0 -- -- 35
2020-05-19 18:00:00 25 4 Nordeste 19 Norte 0 -- -- 36
2020-05-19 17:00:00 25.1 12 Norte 28 Norte 0 -- -- 34
2020-05-19 16:00:00 25.6 6 Norte 24 Norte 0 -- -- 38
2020-05-19 15:00:00 25.2 11 Norte 30 Nordeste 0 -- -- 33
2020-05-19 14:00:00 25.8 6 Noroeste 20 Norte 0 -- -- 37
2020-05-19 13:00:00 25.8 3 Este 13 Norte 0 -- -- 32
2020-05-19 12:00:00 23.1 6 Sudoeste 14 Sudoeste 0 -- -- 38
2020-05-19 11:00:00 18.2 3 Oeste 5 Sur 0 -- -- 47
2020-05-19 10:00:00 12.9 0 Calma 7 Norte 0 -- -- 60
2020-05-19 09:00:00 9.5 2 Nordeste 6 Norte 0 -- -- 69
2020-05-19 08:00:00 7.5 2 Norte 11 Norte 0 -- -- 75
2020-05-19 07:00:00 7.3 0 Calma 6 Nordeste 0 -- -- 74
2020-05-19 06:00:00 7.9 0 Calma 14 Norte 0 -- -- 71
2020-05-19 05:00:00 8.5 2 Este 10 Norte 0 -- -- 68
2020-05-19 04:00:00 8.7 2 Este 4 Sur 0 -- -- 70
2020-05-19 03:00:00 9 2 Sudeste 6 Sudeste 0 -- -- 72
2020-05-19 02:00:00 10 0 Calma 5 Norte 0 -- -- 70
2020-05-19 01:00:00 11.5 2 Sudeste 7 Sudoeste 0 -- -- 59
2020-05-19 00:00:00 13.4 0 Calma 8 Sudeste 0 -- -- 53
2020-05-18 23:00:00 14.9 2 Sudeste 17 Norte 0 -- -- 53
2020-05-18 22:00:00 16.8 6 Nordeste 21 Norte 0 -- -- 44
2020-05-18 21:00:00 17.6 3 Sudeste 11 Sudeste 0 -- -- 42
2020-05-18 20:00:00 21.1 2 Este 16 Nordeste 0 -- -- 43
2020-05-18 19:00:00 23.5 4 Sur 18 Sudeste 0 -- -- 35
2020-05-18 18:00:00 24.5 10 Sudoeste 22 Sudoeste 0 -- -- 40
2020-05-18 17:00:00 24.8 12 Sudoeste 24 Sudoeste 0 -- -- 40
2020-05-18 16:00:00 24.8 13 Sudoeste 27 Sudoeste 0 -- -- 36
2020-05-18 15:00:00 24.2 18 Sudoeste 26 Sudoeste 0 -- -- 37
2020-05-18 14:00:00 23.9 11 Sudoeste 23 Sudoeste 0 -- -- 39
2020-05-18 13:00:00 22.5 12 Sudoeste 22 Sudoeste 0 -- -- 38
2020-05-18 12:00:00 20.9 9 Sudoeste 19 Sudoeste 0 -- -- 43
2020-05-18 11:00:00 16.2 4 Sur 9 Sudoeste 0 -- -- 49
2020-05-18 10:00:00 10.8 0 Calma 8 Norte 0 -- -- 68
2020-05-18 09:00:00 7.8 3 Noroeste 8 Norte 0 -- -- 79
2020-05-18 08:00:00 5.9 0 Calma 5 Oeste 0 -- -- 88
2020-05-18 07:00:00 5.4 0 Calma 6 Sudoeste 0 -- -- 86
2020-05-18 06:00:00 5.9 2 Sur 5 Sudoeste 0 -- -- 85
2020-05-18 05:00:00 6.6 0 Calma 3 Noroeste 0 -- -- 82
2020-05-18 04:00:00 7.4 0 Calma 8 Norte 0 -- -- 77
2020-05-18 03:00:00 8.4 0 Calma 8 Noroeste 0 -- -- 76
2020-05-18 02:00:00 9.2 0 Calma 4 Sudeste 0 -- -- 71
2020-05-18 01:00:00 10.7 0 Calma 6 Sudeste 0 -- -- 65
2020-05-18 00:00:00 12.5 3 Oeste 13 Norte 0 -- -- 57
2020-05-17 23:00:00 14.1 3 Oeste 14 Oeste 0 -- -- 51
2020-05-17 22:00:00 15.2 6 Este 21 Norte 0 -- -- 49
2020-05-17 21:00:00 16.5 5 Sudeste 25 Norte 0 -- -- 48
2020-05-17 20:00:00 19.6 12 Norte 28 Norte 0 -- -- 35
2020-05-17 19:00:00 21.7 5 Nordeste 22 Norte 0 -- -- 34
2020-05-17 18:00:00 22.9 5 Nordeste 18 Nordeste 0 -- -- 29
2020-05-17 17:00:00 23.5 4 Norte 17 Norte 0 -- -- 27
2020-05-17 16:00:00 23.8 6 Norte 22 Norte 0 -- -- 26
2020-05-17 15:00:00 23.3 5 Sudoeste 17 Norte 0 -- -- 34
2020-05-17 14:00:00 21.7 9 Norte 21 Norte 0 -- -- 28
2020-05-17 13:00:00 21.6 4 Sudoeste 10 Nordeste 0 -- -- 30
2020-05-17 12:00:00 19.7 2 Este 7 Norte 0 -- -- 42
2020-05-17 11:00:00 16.8 3 Norte 9 Sur 0 -- -- 44
2020-05-17 10:00:00 13.9 0 Calma 11 Norte 0 -- -- 54
2020-05-17 09:00:00 12 2 Noroeste 12 Norte 0 -- -- 64
2020-05-17 08:00:00 9.9 3 Norte 10 Nordeste 0 -- -- 81
2020-05-17 07:00:00 10.3 0 Calma 9 Nordeste 0 -- -- 72
2020-05-17 06:00:00 9.4 3 Nordeste 6 Nordeste 0 -- -- 79
2020-05-17 05:00:00 9.7 3 Nordeste 15 Oeste 0 -- -- 78
2020-05-17 04:00:00 9.8 2 Este 9 Norte 0 -- -- 76
2020-05-17 03:00:00 10.4 3 Este 9 Sudeste 0 -- -- 69
2020-05-17 02:00:00 10.8 3 Nordeste 10 Nordeste 0 -- -- 69
2020-05-17 01:00:00 11.2 4 Este 9 Noroeste 0 -- -- 64
2020-05-17 00:00:00 12.4 3 Nordeste 18 Norte 0 -- -- 61
2020-05-16 23:00:00 12.6 7 Nordeste 22 Noroeste 0 -- -- 57
2020-05-16 22:00:00 12.3 5 Nordeste 27 Norte 0 -- -- 60
2020-05-16 21:00:00 13.9 5 Norte 23 Norte 0 -- -- 54
2020-05-16 20:00:00 15.7 8 Norte 26 Norte 0 -- -- 49
2020-05-16 19:00:00 15.9 8 Sudoeste 18 Norte 0 -- -- 65
2020-05-16 18:00:00 16.5 8 Noroeste 29 Oeste 0 -- -- 46
2020-05-16 17:00:00 17.9 6 Nordeste 19 Sudoeste 0 -- -- 45
2020-05-16 16:00:00 18.9 15 Sudoeste 24 Sudoeste 0 -- -- 61
2020-05-16 15:00:00 18.8 11 Sudoeste 23 Sudoeste 0 -- -- 56
2020-05-16 14:00:00 18.3 12 Sudoeste 23 Sudoeste 0 -- -- 60
2020-05-16 13:00:00 16.6 10 Sudoeste 18 Sudoeste 0 -- -- 68
2020-05-16 12:00:00 16.1 5 Sudoeste 12 Sudoeste 0 -- -- 68
2020-05-16 11:00:00 13.8 0 Calma 4 Norte 0 -- -- 83
2020-05-16 10:00:00 12.3 0 Calma 5 Norte 0 -- -- 94
2020-05-16 09:00:00 10.7 0 Calma 0 Calma 0 -- -- 96
2020-05-16 08:00:00 9.6 0 Calma 0 Calma 0 -- -- 100
2020-05-16 07:00:00 9.1 0 Calma 0 Calma 0 -- -- 100
2020-05-16 06:00:00 9.1 0 Calma 0 Calma 0 -- -- 100
2020-05-16 05:00:00 9.2 0 Calma 0 Calma 0 -- -- 100
2020-05-16 04:00:00 9.3 0 Calma 0 Calma 0 -- -- 99
2020-05-16 03:00:00 9.4 0 Calma 5 Sur 0 -- -- 99
2020-05-16 02:00:00 9.3 2 Sudeste 4 Sur 0 -- -- 99
2020-05-16 01:00:00 9.7 2 Sudeste 6 Sur 0 -- -- 99
2020-05-16 00:00:00 9.7 3 Sur 6 Sur 0 -- -- 99
2020-05-15 23:00:00 9.7 2 Sudeste 5 Sur 0 -- -- 98
2020-05-15 22:00:00 10.5 0 Calma 5 Nordeste 0.6 -- -- 97
2020-05-15 21:00:00 11.5 2 Sudeste 5 Este 0 -- -- 96
2020-05-15 20:00:00 12.2 0 Calma 2 Norte 0.2 -- -- 97
2020-05-15 19:00:00 12.5 0 Calma 4 Sudoeste 2 -- -- 97
2020-05-15 18:00:00 13.1 0 Calma 3 Sudeste 1 -- -- 93
2020-05-15 17:00:00 14 0 Calma 5 Sudoeste 2 -- -- 91
2020-05-15 16:00:00 15.3 3 Sudoeste 6 Sur 0.4 -- -- 83
2020-05-15 15:00:00 15.5 3 Sudoeste 11 Sudoeste 0 -- -- 80
2020-05-15 14:00:00 15.7 9 Sudoeste 19 Sudoeste 0 -- -- 71
2020-05-15 13:00:00 15.8 0 Calma 2 Sudoeste 0 -- -- 82
2020-05-15 12:00:00 14.7 0 Calma 0 Calma 0 -- -- 82
2020-05-15 11:00:00 13.6 0 Calma 0 Calma 0 -- -- 85
2020-05-15 10:00:00 12.1 0 Calma 0 Calma 0 -- -- 92
2020-05-15 09:00:00 10.4 0 Calma 0 Calma 0 -- -- 97
2020-05-15 08:00:00 9.7 0 Calma 0 Calma 0 -- -- 100
2020-05-15 07:00:00 9 0 Calma 0 Calma 0 -- -- 99
2020-05-15 06:00:00 8.9 0 Calma 0 Calma 0 -- -- 99
2020-05-15 05:00:00 9.2 0 Calma 0 Calma 0 -- -- 99
2020-05-15 04:00:00 9.5 0 Calma 0 Calma 0 -- -- 99
2020-05-15 03:00:00 9.6 0 Calma 0 Calma 0 -- -- 99
2020-05-15 02:00:00 9.7 0 Calma 0 Calma 0 -- -- 99
2020-05-15 01:00:00 9.4 0 Calma 0 Calma 0 -- -- 98
2020-05-15 00:00:00 9.9 0 Calma 0 Calma 0 -- -- 98
2020-05-14 23:00:00 10.1 0 Calma 2 Sudeste 0 -- -- 98
2020-05-14 22:00:00 10.4 0 Calma 3 Sudeste 0.2 -- -- 97
2020-05-14 21:00:00 10.7 0 Calma 3 Sudeste 0.2 -- -- 96
2020-05-14 20:00:00 11 0 Calma 5 Sudeste 1 -- -- 95
2020-05-14 19:00:00 11.2 3 Sudeste 6 Sudeste 1 -- -- 92
2020-05-14 18:00:00 11.4 2 Sudeste 6 Sudeste 1 -- -- 92
2020-05-14 17:00:00 11.6 4 Sur 15 Sudoeste 1.4 -- -- 90
2020-05-14 16:00:00 13.3 0 Calma 8 Sudeste 1 -- -- 89
2020-05-14 15:00:00 15 5 Sur 18 Sudoeste 0 -- -- 71
2020-05-14 14:00:00 17.5 4 Sudoeste 11 Sudoeste 0 -- -- 63
2020-05-14 13:00:00 15.5 6 Sudoeste 14 Sudoeste 0 -- -- 67
2020-05-14 12:00:00 15.1 4 Sudoeste 9 Sudoeste 0 -- -- 72
2020-05-14 11:00:00 13.6 0 Calma 0 Calma 0 -- -- 84
2020-05-14 10:00:00 11.2 0 Calma 0 Calma 0 -- -- 93
2020-05-14 09:00:00 10.9 0 Calma 0 Calma 0 -- -- 93
2020-05-14 08:00:00 9.4 0 Calma 0 Calma 0 -- -- 99
2020-05-14 07:00:00 9 0 Calma 0 Calma 0 -- -- 99
2020-05-14 06:00:00 8.7 0 Calma 0 Calma 0 -- -- 98
2020-05-14 05:00:00 8.8 0 Calma 0 Calma 0 -- -- 98
2020-05-14 04:00:00 8.8 0 Calma 0 Calma 0 -- -- 98
2020-05-14 03:00:00 8.8 0 Calma 0 Calma 0 -- -- 98
2020-05-14 02:00:00 8.8 0 Calma 0 Calma 0 -- -- 97
2020-05-14 01:00:00 10 0 Calma 0 Calma 0 -- -- 94
2020-05-14 00:00:00 10.9 0 Calma 0 Calma 0 -- -- 95
2020-05-13 23:00:00 11.2 0 Calma 0 Calma 0 -- -- 94
2020-05-13 22:00:00 11.7 0 Calma 3 Este 0 -- -- 92
2020-05-13 21:00:00 12.8 0 Calma 3 Sudeste 0 -- -- 89
2020-05-13 20:00:00 14.6 0 Calma 6 Oeste 0 -- -- 83
2020-05-13 19:00:00 15.5 2 Oeste 9 Sudoeste 0 -- -- 71
2020-05-13 18:00:00 15.8 4 Oeste 10 Oeste 0 -- -- 68
2020-05-13 17:00:00 13.2 2 Sudoeste 7 Oeste 0 -- -- 85
2020-05-13 16:00:00 13.4 2 Oeste 16 Sudoeste 0.4 -- -- 87
2020-05-13 15:00:00 15 3 Oeste 24 Sudoeste 0 -- -- 74
2020-05-13 14:00:00 16.4 10 Sudoeste 26 Sudoeste 0 -- -- 62
2020-05-13 13:00:00 16.5 10 Sudoeste 21 Sudoeste 0 -- -- 57
2020-05-13 12:00:00 14.6 3 Norte 8 Norte 0 -- -- 78
2020-05-13 11:00:00 12.2 3 Norte 9 Norte 0 -- -- 86
2020-05-13 10:00:00 9.9 0 Calma 3 Noroeste 0.4 -- -- 96
2020-05-13 09:00:00 8.8 0 Calma 3 Sudoeste 0.4 -- -- 98
2020-05-13 08:00:00 8.3 0 Calma 5 Sur 0.6 -- -- 98
2020-05-13 07:00:00 8.5 0 Calma 6 Oeste 0.2 -- -- 98
2020-05-13 06:00:00 8.6 0 Calma 10 Sur 6.6 -- -- 97
2020-05-13 05:00:00 10 2 Sudoeste 5 Sudoeste 4.6 -- -- 98
2020-05-13 04:00:00 10.1 2 Nordeste 14 Sur 1.8 -- -- 97
2020-05-13 03:00:00 10.5 2 Nordeste 8 Sur 1 -- -- 97
2020-05-13 02:00:00 11.1 2 Sur 5 Sur 0.6 -- -- 98
2020-05-13 01:00:00 11.4 3 Sur 4 Sudeste 1.2 -- -- 97
2020-05-13 00:00:00 11.7 0 Calma 5 Sudoeste 1 -- -- 97
2020-05-12 23:00:00 12.1 4 Sudoeste 13 Noroeste 2.4 -- -- 96
2020-05-12 22:00:00 12.6 3 Nordeste 12 Sur 1.2 -- -- 90
2020-05-12 21:00:00 13.7 2 Sudeste 16 Sudoeste 0.4 -- -- 90
2020-05-12 20:00:00 15.3 7 Sur 27 Sudoeste 0.2 -- -- 78
2020-05-12 19:00:00 17.8 11 Sur 26 Sudoeste 0 -- -- 54
2020-05-12 18:00:00 19 2 Oeste 8 Sudoeste 0 -- -- 50
2020-05-12 17:00:00 17.8 4 Sur 15 Sudeste 0 -- -- 52
2020-05-12 16:00:00 18.7 6 Sudoeste 22 Sudoeste 0 -- -- 54
2020-05-12 15:00:00 19 15 Sudoeste 25 Sudoeste 0 -- -- 51
2020-05-12 14:00:00 19.8 9 Sudoeste 24 Sudoeste 0 -- -- 46
2020-05-12 13:00:00 18.8 3 Sudoeste 6 Sudoeste 0 -- -- 53
2020-05-12 12:00:00 16.9 3 Sudoeste 8 Oeste 0 -- -- 65
2020-05-12 11:00:00 13.4 2 Sur 7 Oeste 0 -- -- 74
2020-05-12 10:00:00 9.6 4 Norte 9 Norte 0 -- -- 93
2020-05-12 09:00:00 7.4 0 Calma 8 Norte 0 -- -- 98
2020-05-12 08:00:00 5.8 0 Calma 7 Noroeste 0 -- -- 100
2020-05-12 07:00:00 5.2 0 Calma 0 Calma 0 -- -- 99
2020-05-12 06:00:00 5.6 0 Calma 0 Calma 0 -- -- 99
2020-05-12 05:00:00 5.6 0 Calma 0 Calma 0 -- -- 98
2020-05-12 04:00:00 6.1 0 Calma 0 Calma 0 -- -- 98
2020-05-12 03:00:00 6.5 0 Calma 0 Calma 0 -- -- 97
2020-05-12 02:00:00 7 0 Calma 0 Calma 0 -- -- 97
2020-05-12 01:00:00 7.7 0 Calma 3 Sur 0 -- -- 96
2020-05-12 00:00:00 8.3 2 Este 5 Este 0 -- -- 94
2020-05-11 23:00:00 9.6 3 Este 11 Sudoeste 0 -- -- 92
2020-05-11 22:00:00 10.4 0 Calma 4 Sur 0 -- -- 88
2020-05-11 21:00:00 13 0 Calma 15 Sudoeste 0 -- -- 76
2020-05-11 20:00:00 16.2 7 Sur 26 Sudoeste 0 -- -- 58
2020-05-11 19:00:00 17.6 8 Sudoeste 24 Sur 0 -- -- 57
2020-05-11 18:00:00 18.2 8 Sudoeste 23 Sudoeste 0 -- -- 54
2020-05-11 17:00:00 17.7 6 Oeste 26 Sudoeste 0 -- -- 60
2020-05-11 16:00:00 15.1 13 Sudoeste 27 Sudoeste 0 -- -- 69
2020-05-11 15:00:00 14.8 9 Sudoeste 25 Sur 0 -- -- 72
2020-05-11 14:00:00 14 9 Sur 22 Sur 0 -- -- 73
2020-05-11 13:00:00 12.5 8 Sur 21 Sur 0 -- -- 78
2020-05-11 12:00:00 11.9 4 Sudoeste 10 Sur 0 -- -- 82
2020-05-11 11:00:00 11.1 4 Sudoeste 16 Sudoeste 0 -- -- 89
2020-05-11 10:00:00 10.7 5 Sudoeste 15 Sur 0 -- -- 88
2020-05-11 09:00:00 10.3 0 Calma 0 Calma 0 -- -- 99
2020-05-11 08:00:00 9.6 0 Calma 0 Calma 0 -- -- 100
2020-05-11 07:00:00 8.9 0 Calma 0 Calma 0 -- -- 100
2020-05-11 06:00:00 9.2 0 Calma 0 Calma 0 -- -- 100
2020-05-11 05:00:00 9.3 0 Calma 0 Calma 0 -- -- 100
2020-05-11 04:00:00 9.1 0 Calma 0 Calma 0 -- -- 98
2020-05-11 03:00:00 9.7 0 Calma 0 Calma 0 -- -- 99
2020-05-11 02:00:00 9.7 0 Calma 0 Calma 0.2 -- -- 99
2020-05-11 01:00:00 9.7 0 Calma 0 Calma 0 -- -- 98
2020-05-11 00:00:00 9.9 0 Calma 0 Calma 0.2 -- -- 99
2020-05-10 23:00:00 9.9 0 Calma 3 Norte 0.2 -- -- 98
2020-05-10 22:00:00 10.1 0 Calma 5 Sudeste 0.6 -- -- 97
2020-05-10 21:00:00 10.6 2 Sudeste 6 Sudeste 0.4 -- -- 95
2020-05-10 20:00:00 11.1 0 Calma 2 Norte 0.6 -- -- 96
2020-05-10 19:00:00 11.2 0 Calma 4 Sudoeste 1.6 -- -- 94
2020-05-10 18:00:00 11.5 0 Calma 4 Sur 0.4 -- -- 93
2020-05-10 17:00:00 11.7 0 Calma 2 Norte 2 -- -- 94
2020-05-10 16:00:00 11.5 2 Sur 6 Sudoeste 1 -- -- 94
2020-05-10 15:00:00 11.1 0 Calma 2 Norte 2.4 -- -- 96
2020-05-10 14:00:00 10.7 0 Calma 5 Sur 3.6 -- -- 96
2020-05-10 13:00:00 11.2 3 Nordeste 9 Sudoeste 1.8 -- -- 92
2020-05-10 12:00:00 12.2 9 Sur 23 Sudeste 2.4 -- -- 86
2020-05-10 11:00:00 12.3 7 Sudoeste 38 Sudoeste 5.4 -- -- 93
2020-05-10 10:00:00 13.3 0 Calma 0 Calma 4.2 -- -- 98
2020-05-10 09:00:00 13.4 0 Calma 0 Calma 0.8 -- -- 96
2020-05-10 08:00:00 13.1 0 Calma 0 Calma 0 -- -- 96
2020-05-10 07:00:00 12.9 0 Calma 0 Calma 0 -- -- 96
2020-05-10 06:00:00 12.9 0 Calma 0 Calma 0 -- -- 96
2020-05-10 05:00:00 13.1 0 Calma 0 Calma 0.2 -- -- 95
2020-05-10 04:00:00 13 0 Calma 0 Calma 0 -- -- 95
2020-05-10 03:00:00 12.9 0 Calma 0 Calma 0 -- -- 95
2020-05-10 02:00:00 13.3 0 Calma 4 Sudoeste 0 -- -- 91
2020-05-10 01:00:00 13.3 0 Calma 4 Sudoeste 0 -- -- 90
2020-05-10 00:00:00 13.5 0 Calma 3 Norte 0 -- -- 87
2020-05-09 23:00:00 14.6 0 Calma 7 Sudoeste 0 -- -- 82
2020-05-09 22:00:00 15.9 4 Sur 14 Sudoeste 0 -- -- 77
2020-05-09 21:00:00 18 9 Sudoeste 26 Sudoeste 0 -- -- 69
2020-05-09 20:00:00 19.8 11 Sudoeste 22 Sudoeste 0 -- -- 60
2020-05-09 19:00:00 20.7 5 Sudoeste 17 Sudoeste 0 -- -- 55
2020-05-09 18:00:00 22.1 8 Sudoeste 27 Sudoeste 0 -- -- 49
2020-05-09 17:00:00 22.5 15 Sudoeste 31 Sudoeste 0 -- -- 47
2020-05-09 16:00:00 23.7 9 Sudoeste 27 Sudoeste 0 -- -- 48
2020-05-09 15:00:00 23.6 10 Sur 32 Sudoeste 0 -- -- 45
2020-05-09 14:00:00 23.6 16 Sudoeste 36 Sudoeste 0 -- -- 43
2020-05-09 13:00:00 22.9 6 Sudoeste 21 Sudoeste 0 -- -- 41
2020-05-09 12:00:00 19.8 3 Noroeste 9 Norte 0 -- -- 53
2020-05-09 11:00:00 15.9 3 Nordeste 17 Nordeste 0.2 -- -- 67
2020-05-09 10:00:00 12.1 3 Sudeste 8 Oeste 0 -- -- 88
2020-05-09 09:00:00 11.6 0 Calma 9 Este 0 -- -- 84
2020-05-09 08:00:00 10.1 0 Calma 4 Norte 0 -- -- 88
2020-05-09 07:00:00 9.5 0 Calma 4 Norte 0 -- -- 89
2020-05-09 06:00:00 10.1 0 Calma 4 Sur 0 -- -- 83
2020-05-09 05:00:00 10.9 0 Calma 6 Norte 0 -- -- 79
2020-05-09 04:00:00 11.9 0 Calma 6 Sur 0 -- -- 74
2020-05-09 03:00:00 12.4 3 Este 16 Norte 0 -- -- 75
2020-05-09 02:00:00 11.2 0 Calma 3 Sur 0 -- -- 80
2020-05-09 01:00:00 10.9 0 Calma 4 Este 0 -- -- 78
2020-05-09 00:00:00 11.7 0 Calma 2 Sudoeste 0 -- -- 74
2020-05-08 23:00:00 12.8 0 Calma 3 Este 0 -- -- 71
2020-05-08 22:00:00 14.4 0 Calma 3 Sudeste 0 -- -- 66
2020-05-08 21:00:00 17.2 0 Calma 6 Oeste 0 -- -- 58
2020-05-08 20:00:00 21.7 4 Sudoeste 24 Sudoeste 0 -- -- 41
2020-05-08 19:00:00 23.4 11 Sudoeste 30 Sudoeste 0 -- -- 37
2020-05-08 18:00:00 24.6 10 Sudoeste 26 Sudoeste 0 -- -- 34
2020-05-08 17:00:00 24.7 15 Sudoeste 30 Sur 0 -- -- 31
2020-05-08 16:00:00 25 13 Sudoeste 24 Sudoeste 0 -- -- 26
2020-05-08 15:00:00 24 13 Sudoeste 23 Sudoeste 0 -- -- 32
2020-05-08 14:00:00 22.5 6 Sudoeste 22 Sudoeste 0 -- -- 33
2020-05-08 13:00:00 22.8 9 Sudoeste 31 Sudoeste 0 -- -- 38
2020-05-08 12:00:00 21.7 12 Sudoeste 23 Sudoeste 0 -- -- 44
2020-05-08 11:00:00 18 0 Calma 5 Norte 0 -- -- 72
2020-05-08 10:00:00 15.5 0 Calma 5 Norte 0 -- -- 83
2020-05-08 09:00:00 13.1 0 Calma 5 Norte 0 -- -- 90
2020-05-08 08:00:00 11.5 0 Calma 3 Sur 0 -- -- 94
2020-05-08 07:00:00 11.4 0 Calma 4 Sur 0 -- -- 93
2020-05-08 06:00:00 11.6 0 Calma 4 Sudeste 0 -- -- 93
2020-05-08 05:00:00 11.6 0 Calma 3 Norte 0 -- -- 94
2020-05-08 04:00:00 11.6 0 Calma 4 Este 0 -- -- 92
2020-05-08 03:00:00 12.4 0 Calma 4 Sur 0 -- -- 89
2020-05-08 02:00:00 13.5 0 Calma 4 Nordeste 0 -- -- 86
2020-05-08 01:00:00 14.6 0 Calma 3 Sur 0 -- -- 83
2020-05-08 00:00:00 14.9 0 Calma 3 Sudeste 0 -- -- 80
2020-05-07 23:00:00 16 0 Calma 3 Nordeste 0 -- -- 76
2020-05-07 22:00:00 18.2 2 Nordeste 17 Sudoeste 0 -- -- 66
2020-05-07 21:00:00 20.8 7 Sudoeste 21 Sudoeste 0 -- -- 56
2020-05-07 20:00:00 21.9 6 Sudoeste 19 Sudoeste 0 -- -- 53
2020-05-07 19:00:00 23.4 14 Sudoeste 25 Sudoeste 0 -- -- 50
2020-05-07 18:00:00 24.2 13 Sudoeste 27 Sudoeste 0 -- -- 46
2020-05-07 17:00:00 24.4 13 Sudoeste 28 Sudoeste 0 -- -- 46
2020-05-07 16:00:00 24.5 13 Sudoeste 26 Sudoeste 0 -- -- 46
2020-05-07 15:00:00 24.8 12 Sudoeste 24 Sudoeste 0 -- -- 43
2020-05-07 14:00:00 25 15 Sudoeste 26 Sudoeste 0 -- -- 41
2020-05-07 13:00:00 24.2 9 Sudoeste 23 Sudoeste 0 -- -- 42
2020-05-07 12:00:00 22.2 9 Sudoeste 18 Sudoeste 0 -- -- 48
2020-05-07 11:00:00 17.9 2 Sudeste 8 Norte 0 -- -- 61
2020-05-07 10:00:00 13.9 0 Calma 6 Norte 0 -- -- 76
2020-05-07 09:00:00 11.7 0 Calma 9 Norte 0 -- -- 85
2020-05-07 08:00:00 10.8 2 Noroeste 8 Norte 0 -- -- 90
2020-05-07 07:00:00 10.2 0 Calma 4 Norte 0 -- -- 90
2020-05-07 06:00:00 10.1 0 Calma 5 Norte 0 -- -- 89
2020-05-07 05:00:00 10.3 0 Calma 3 Sudeste 0 -- -- 89
2020-05-07 04:00:00 10.5 0 Calma 3 Sudeste 0 -- -- 88
2020-05-07 03:00:00 11 0 Calma 3 Sur 0 -- -- 87
2020-05-07 02:00:00 11.7 0 Calma 3 Norte 0 -- -- 85
2020-05-07 01:00:00 12.4 0 Calma 3 Norte 0 -- -- 81
2020-05-07 00:00:00 13.3 0 Calma 3 Nordeste 0 -- -- 77
2020-05-06 23:00:00 14.6 0 Calma 3 Sur 0 -- -- 73
2020-05-06 22:00:00 15.9 0 Calma 9 Sudoeste 0 -- -- 68
2020-05-06 21:00:00 20.2 3 Sur 15 Sudoeste 0 -- -- 51
2020-05-06 20:00:00 22.3 5 Sur 20 Sudoeste 0 -- -- 45
2020-05-06 19:00:00 24.2 7 Sudoeste 19 Sur 0 -- -- 42
2020-05-06 18:00:00 24.8 9 Sur 26 Sudoeste 0 -- -- 40
2020-05-06 17:00:00 25.3 8 Sur 24 Sudoeste 0 -- -- 38
2020-05-06 16:00:00 25.2 13 Sudoeste 27 Sudoeste 0 -- -- 36
2020-05-06 15:00:00 25 10 Sudoeste 27 Sudoeste 0 -- -- 36
2020-05-06 14:00:00 23.8 13 Sudoeste 24 Sudoeste 0 -- -- 36
2020-05-06 13:00:00 22.9 12 Sudoeste 21 Sudoeste 0 -- -- 38
2020-05-06 12:00:00 22 9 Sudoeste 18 Sudoeste 0 -- -- 40
2020-05-06 11:00:00 16.5 2 Norte 8 Nordeste 0 -- -- 52
2020-05-06 10:00:00 12.2 3 Norte 7 Nordeste 0 -- -- 69
2020-05-06 09:00:00 9.4 2 Norte 9 Norte 0 -- -- 81
2020-05-06 08:00:00 7.3 0 Calma 4 Norte 0 -- -- 88
2020-05-06 07:00:00 7.2 0 Calma 5 Noroeste 0 -- -- 88
2020-05-06 06:00:00 7.8 0 Calma 5 Noroeste 0 -- -- 86
2020-05-06 05:00:00 8.3 0 Calma 4 Este 0 -- -- 85
2020-05-06 04:00:00 8.9 0 Calma 4 Sudeste 0 -- -- 83
2020-05-06 03:00:00 9.2 0 Calma 6 Sudeste 0 -- -- 83
2020-05-06 02:00:00 9.7 2 Sur 5 Sur 0 -- -- 84
2020-05-06 01:00:00 10.5 0 Calma 4 Sur 0 -- -- 80
2020-05-06 00:00:00 11.1 0 Calma 4 Sudeste 0 -- -- 76
2020-05-05 23:00:00 12.4 2 Este 4 Este 0 -- -- 75
2020-05-05 22:00:00 14.3 0 Calma 4 Sudeste 0 -- -- 71
2020-05-05 21:00:00 16.5 2 Este 9 Sudeste 0 -- -- 58
2020-05-05 20:00:00 21.1 6 Sur 21 Sudoeste 0 -- -- 47
2020-05-05 19:00:00 21.8 9 Sudoeste 21 Sudoeste 0 -- -- 46
2020-05-05 18:00:00 22.4 8 Sudoeste 28 Sudoeste 0 -- -- 46
2020-05-05 17:00:00 23.4 11 Sudoeste 26 Sudoeste 0 -- -- 47
2020-05-05 16:00:00 24.6 13 Sudoeste 29 Sudoeste 0 -- -- 44
2020-05-05 15:00:00 25.2 8 Sudoeste 19 Sudoeste 0 -- -- 41
2020-05-05 14:00:00 24.5 8 Sur 21 Sudoeste 0 -- -- 40
2020-05-05 13:00:00 24.4 8 Oeste 22 Sudoeste 0 -- -- 43
2020-05-05 12:00:00 22.6 9 Sudoeste 23 Sudoeste 0 -- -- 49
2020-05-05 11:00:00 19 4 Sudoeste 12 Sudoeste 0 -- -- 61
2020-05-05 10:00:00 14.8 0 Calma 5 Nordeste 0 -- -- 79
2020-05-05 09:00:00 12.3 0 Calma 3 Norte 0 -- -- 90
2020-05-05 08:00:00 10.3 0 Calma 4 Sur 0 -- -- 95
2020-05-05 07:00:00 10.4 0 Calma 4 Sudeste 0 -- -- 92
2020-05-05 06:00:00 11 0 Calma 3 Sudeste 0 -- -- 92
2020-05-05 05:00:00 11.5 0 Calma 2 Este 0 -- -- 90
2020-05-05 04:00:00 12.1 0 Calma 2 Este 0 -- -- 88
2020-05-05 03:00:00 12.8 0 Calma 3 Este 0 -- -- 87
2020-05-05 02:00:00 13.4 0 Calma 2 Sudeste 0 -- -- 86
2020-05-05 01:00:00 14.1 0 Calma 4 Sudeste 0 -- -- 82
2020-05-05 00:00:00 15.1 0 Calma 5 Sudeste 0 -- -- 79
2020-05-04 23:00:00 16.4 0 Calma 5 Nordeste 0 -- -- 74
2020-05-04 22:00:00 18.6 0 Calma 8 Sur 0 -- -- 71
2020-05-04 21:00:00 21.2 0 Calma 6 Sur 0 -- -- 63
2020-05-04 20:00:00 24.9 3 Sur 16 Sur 0 -- -- 47
2020-05-04 19:00:00 26.1 6 Sudoeste 16 Oeste 0 -- -- 43
2020-05-04 18:00:00 26.7 6 Sudoeste 18 Sudoeste 0 -- -- 41
2020-05-04 17:00:00 27 6 Sudoeste 23 Sudoeste 0 -- -- 39
2020-05-04 16:00:00 28.8 9 Sudoeste 24 Sudoeste 0 -- -- 34
2020-05-04 15:00:00 28.3 10 Sudoeste 23 Sudoeste 0 -- -- 37
2020-05-04 14:00:00 27.3 10 Sudoeste 32 Sudoeste 0 -- -- 39
2020-05-04 13:00:00 26.1 13 Sudoeste 27 Sudoeste 0 -- -- 46
2020-05-04 12:00:00 23.1 2 Norte 6 Nordeste 0 -- -- 53
2020-05-04 11:00:00 18 0 Calma 10 Norte 0 -- -- 59
2020-05-04 10:00:00 14.1 4 Norte 9 Norte 0 -- -- 76
2020-05-04 09:00:00 11.4 3 Norte 8 Nordeste 0 -- -- 87
2020-05-04 08:00:00 9.8 0 Calma 5 Sudoeste 0 -- -- 92
2020-05-04 07:00:00 9.8 2 Noroeste 7 Norte 0 -- -- 92
2020-05-04 06:00:00 10.2 0 Calma 4 Noroeste 0 -- -- 92
2020-05-04 05:00:00 10.4 0 Calma 6 Sudeste 0 -- -- 92
2020-05-04 04:00:00 10.7 0 Calma 3 Sudoeste 0 -- -- 90
2020-05-04 03:00:00 11.1 0 Calma 4 Noroeste 0 -- -- 89
2020-05-04 02:00:00 11.5 0 Calma 3 Sudoeste 0 -- -- 89
2020-05-04 01:00:00 12.2 0 Calma 3 Sur 0 -- -- 87
2020-05-04 00:00:00 13 0 Calma 3 Sudeste 0 -- -- 83
2020-05-03 23:00:00 14.5 0 Calma 4 Sudeste 0 -- -- 79
2020-05-03 22:00:00 15.9 0 Calma 4 Sudeste 0 -- -- 74
2020-05-03 21:00:00 19.8 0 Calma 18 Sur 0 -- -- 61
2020-05-03 20:00:00 22.8 6 Sur 23 Sudoeste 0 -- -- 50
2020-05-03 19:00:00 24.7 9 Sudoeste 27 Sudoeste 0 -- -- 45
2020-05-03 18:00:00 25.9 9 Sudoeste 24 Sudoeste 0 -- -- 39
2020-05-03 17:00:00 25.9 9 Sur 25 Sur 0 -- -- 38
2020-05-03 16:00:00 26 12 Sudoeste 27 Oeste 0 -- -- 35
2020-05-03 15:00:00 24.9 14 Sudoeste 26 Sudoeste 0 -- -- 35
2020-05-03 14:00:00 24.1 13 Sudoeste 29 Sudoeste 0 -- -- 39
2020-05-03 13:00:00 22.9 15 Sudoeste 27 Sudoeste 0 -- -- 36
2020-05-03 12:00:00 20.8 15 Sudoeste 24 Sudoeste 0 -- -- 39
2020-05-03 11:00:00 15.6 2 Noroeste 5 Nordeste 0 -- -- 54
2020-05-03 10:00:00 11.8 3 Norte 8 Norte 0 -- -- 70
2020-05-03 09:00:00 9.2 2 Nordeste 6 Nordeste 0 -- -- 80
2020-05-03 08:00:00 7.5 0 Calma 3 Este 0 -- -- 87
2020-05-03 07:00:00 7.2 0 Calma 4 Sudoeste 0 -- -- 88
2020-05-03 06:00:00 8 0 Calma 8 Oeste 0 -- -- 85
2020-05-03 05:00:00 8.5 0 Calma 4 Norte 0 -- -- 84
2020-05-03 04:00:00 9.1 0 Calma 6 Sudoeste 0 -- -- 83
2020-05-03 03:00:00 10 0 Calma 5 Norte 0 -- -- 80
2020-05-03 02:00:00 10.4 0 Calma 4 Este 0 -- -- 79
2020-05-03 01:00:00 10.8 2 Sudeste 5 Sur 0 -- -- 80
2020-05-03 00:00:00 12.1 0 Calma 5 Sudeste 0 -- -- 76
2020-05-02 23:00:00 13 0 Calma 4 Sudeste 0 -- -- 73
2020-05-02 22:00:00 14.8 2 Sudeste 6 Sudeste 0 -- -- 71
2020-05-02 21:00:00 19.1 0 Calma 14 Sudoeste 0 -- -- 57
2020-05-02 20:00:00 21.2 5 Sur 30 Sudoeste 0 -- -- 47
2020-05-02 19:00:00 22.5 9 Sudoeste 30 Sudoeste 0 -- -- 45
2020-05-02 18:00:00 22.2 10 Sudoeste 28 Sudeste 0 -- -- 48
2020-05-02 17:00:00 23.1 10 Sur 31 Sudoeste 0 -- -- 47
2020-05-02 16:00:00 23.5 11 Sudoeste 25 Sudoeste 0 -- -- 47
2020-05-02 15:00:00 23.2 10 Sudoeste 23 Sudoeste 0 -- -- 42
2020-05-02 14:00:00 23 14 Sudoeste 26 Sudoeste 0 -- -- 46
2020-05-02 13:00:00 23 13 Sudoeste 28 Sudoeste 0 -- -- 43
2020-05-02 12:00:00 20.4 10 Sudoeste 18 Sudoeste 0 -- -- 55
2020-05-02 11:00:00 14.6 2 Norte 5 Oeste 0 -- -- 77
2020-05-02 10:00:00 11.3 0 Calma 9 Norte 0 -- -- 89
2020-05-02 09:00:00 9.1 4 Norte 7 Norte 0 -- -- 97
2020-05-02 08:00:00 7.7 0 Calma 4 Norte 0 -- -- 99
2020-05-02 07:00:00 7.5 3 Sur 5 Sur 0 -- -- 98
2020-05-02 06:00:00 7.9 2 Sudeste 5 Sudeste 0 -- -- 97
2020-05-02 05:00:00 8.6 0 Calma 5 Sur 0 -- -- 97
2020-05-02 04:00:00 9.2 0 Calma 4 Sudeste 0 -- -- 96
2020-05-02 03:00:00 9.3 0 Calma 5 Sudeste 0 -- -- 97
2020-05-02 02:00:00 9.6 2 Este 7 Sudeste 0 -- -- 94
2020-05-02 01:00:00 10.7 2 Sur 5 Sudeste 0 -- -- 93
2020-05-02 00:00:00 11.4 0 Calma 7 Sudeste 0 -- -- 91